Hoppa till innehåll

METAR väder och rapporter - LSZH

Nedan listas information från vald flygplats. Andra METARs finns längre ned på sidan. Kontakta oss om någon saknas eller skriv in egen ICAO-kod.

Coded METAR: 2023/03/23 20:50 LSZH 232050Z 16008KT CAVOK 13/06 Q1011 NOSIG

Weather Report @ LSZH

Issued: 23rd Mar 2023 at 21:50 CET

Wind: gentle breeze from South-Southeast (160 degrees) at 8 knots (9 mph, 15 kph, 4 mps, Force 3)
Weather: good visibility and no low cloud (ceiling and visibility OK)
Temperature: 55F / 13C
Dewpoint: 43F / 6C
Humidity: 62%
Pressure: 1011 hPa
Weather: no significant change expected

Coded TAF: 2023/03/23 21:37 TAF LSZH 232025Z 2321/2503 19005KT 9999 BKN070 TX14/2415Z TN09/2405Z TEMPO 2321/2403 CAVOK PROB40 TEMPO 2406/2410 RA BECMG 2407/2410 24010KT TEMPO 2410/2503 SHRA TEMPO 2410/2416 26015G25KT PROB40 TEMPO 2412/2415 4000 SHRA SCT030TCU

Weather Forecast @ LSZH

Issued: 23rd Mar 2023 at 22:37 CET

Valid : 23rd Mar 22:00 until 24th Mar 04:00 CET

22:00 CET
Wind: light breeze from the South (190 degrees) at 5 knots (6 mph, 9 kph, 3 mps, Force 2)
Visibility: 10km or more
Cloud: broken at 7000 feet
Max. Temp: 57F / 14C at 01:00 CET
Min. Temp: 48F / 9C at 01:00 CET

22:00 CET to 04:00 CET
Occasional

Weather: good visibility and no low cloud (ceiling and visibility OK)

01:00 CET to 01:00 CET
there is a 40% chance of:


07:00 CET to 11:00 CET
Occasional

Weather: rain

08:00 CET to 11:00 CET
becoming:

Wind: gentle breeze from West-Southwest (240 degrees) at 10 knots (12 mph, 19 kph, 5 mps, Force 3)

11:00 CET to 04:00 CET
Occasional

Weather: showers of rain

11:00 CET to 17:00 CET
Occasional

Wind: moderate breeze from the West (260 degrees) at 15 knots (17 mph, 28 kph, 8 mps, Force 4) gusting to 25 knots (29 mph 46 kph, 13 mps)

01:00 CET to 01:00 CET
there is a 40% chance of:


13:00 CET to 16:00 CET
Occasional

Visibility: 4000 metres
Weather: showers of rain
Cloud: scattered at 3000 feet with towering cumulus

Internet delivery of weather data is not secure or reliable enough for operational purposes.

NEVER RELY ON THE OUTPUT OF THIS SCRIPT TO MAKE DECISIONS ABOUT ANYTHING IN WHICH THE WEATHER FORECAST AND ITS INTERPRETATION COULD BE AN ISSUE OF SAFETY.

Andra intressanta METARs

Klicka på önskad rubrik nedan för att visa nuvarande väder för den platsen.

Avstånd från stationen: NO 27kmESGG - Göteborg (Landvetter)
Uppdaterad: 2023-03-23 21:50
 Vind från SSV
Vind: SSV 22 km/h
Temperatur: 4°C
Vindavkylning: -1°C
Daggpunkt: 3°C
Luftfuktighet: 93%
Barometer: 996 hPa
Summering: Klart
Sikt: mer än 10 km
2023/03/23 20:50 ESGG 232050Z 21012KT CAVOK 04/03 Q0996
Klart
Klart
  Visa detaljer för Göteborg (Landvetter)
Avstånd från stationen: N 28kmESGP - Göteborg (Säve)
Uppdaterad: 2023-03-23 21:50
 Vind från SSV
Vind: SSV 20 km/h
Temperatur: 7°C
Vindavkylning: 4°C
Daggpunkt: 3°C
Luftfuktighet: 76%
Barometer: 997 hPa
Moln: Genommulet
Sikt: 10 km
Molninformation: Övervägande molnigt 823 m
Genommulet 3353 m
2023/03/23 20:50 ESGP 232050Z 21011KT 9999 BKN027 OVC110 07/03 Q0997
Genommulet
Genommulet
  Visa detaljer för Göteborg (Säve)
Avstånd från stationen: NO 419kmESSA - Stockholm (Arlanda)
Uppdaterad: 2023-03-23 21:50
 Vind från VSV
Vind: VSV 11 km/h
Temperatur: 5°C
Vindavkylning: 2°C
Daggpunkt: 3°C
Luftfuktighet: 87%
Barometer: 992 hPa
Moln: Övervägande molnigt
Sikt: 10 km
Molninformation: Några få moln 1250 m
Övervägande molnigt 2438 m
2023/03/23 20:50 ESSA 232050Z 24006KT 9999 FEW041 BKN080 05/03 Q0992 NOSIG
Övervägande molnigt
Övervägande molnigt
  Visa detaljer för Stockholm (Arlanda)
Avstånd från stationen: ONO 404kmESSB - Stockholm (Bromma)
Uppdaterad: 2023-03-23 21:50
 Vind från SV
Vind: SV 11 km/h
Temperatur: 5°C
Vindavkylning: 2°C
Daggpunkt: 4°C
Luftfuktighet: 93%
Barometer: 993 hPa
Moln: Några få moln
Sikt: 10 km
Molninformation: Några få moln 1189 m
2023/03/23 20:50 ESSB 232050Z 23006KT 9999 FEW039 05/04 Q0993
Några få moln
Några få moln
  Visa detaljer för Stockholm (Bromma)
Avstånd från stationen: ONO 323kmESKN - Stockholm (Skavsta)
Uppdaterad: 2023-03-23 21:50
 Vind från V
Vind: V 22 km/h
Temperatur: 6°C
Vindavkylning: 2°C
Daggpunkt: 4°C
Luftfuktighet: 87%
Barometer: 994 hPa
Moln: Övervägande molnigt
Sikt: 10 km
Molninformation: Övervägande molnigt 975 m
2023/03/23 20:50 ESKN 232050Z 26012KT 9999 BKN032 06/04 Q0994
Övervägande molnigt
Övervägande molnigt
  Visa detaljer för Stockholm (Skavsta)
Avstånd från stationen: SSO 238kmESMS - Malmö flygplats (Sturup)
Uppdaterad: 2023-03-23 21:50
 Vind från SSV
Vind: SSV 17 km/h
Temperatur: 7°C
Vindavkylning: 4°C
Daggpunkt: 4°C
Luftfuktighet: 81%
Barometer: 1002 hPa
Summering: Klart
Sikt: mer än 10 km
2023/03/23 20:50 ESMS 232050Z 21009KT CAVOK 07/04 Q1002
Klart
Klart
  Visa detaljer för Malmö flygplats (Sturup)
Avstånd från stationen: O 382kmESSV - Visby flygplats
Uppdaterad: 2023-03-23 21:50
 Vind från VSV
Vind: VSV 30 km/h
Temperatur: 6°C
Vindavkylning: 2°C
Daggpunkt: 4°C
Luftfuktighet: 87%
Barometer: 997 hPa
Moln: Några få moln
Sikt: 10 km
Molninformation: Några få moln 792 m
2023/03/23 20:50 ESSV 232050Z 24016KT 9999 FEW026 06/04 Q0997
Några få moln
Några få moln
  Visa detaljer för Visby flygplats
Avstånd från stationen: NNO 92kmESGT - Trollhättan
Uppdaterad: 2023-03-23 21:50
 Vind från SV
Vind: SV 20 km/h
Temperatur: 6°C
Vindavkylning: 2°C
Daggpunkt: 4°C
Luftfuktighet: 87%
Barometer: 995 hPa
Moln: Genommulet
Sikt: 10 km
Molninformation: Delvis molnigt 823 m
Genommulet 2377 m
2023/03/23 20:50 ESGT 232050Z AUTO 22011KT 9999 R15///// R33///// SCT027/// OVC078/// 06/04 Q0995 RERA
Genommulet
Genommulet
  Visa detaljer för Trollhättan
Avstånd från stationen: ONO 129kmESGJ - Jönköpings flygplats
Uppdaterad: 2023-03-23 21:50
 Vind från SV
Vind: SV 22 km/h
Temperatur: 5°C
Vindavkylning: 1°C
Daggpunkt: 4°C
Luftfuktighet: 93%
Barometer: 996 hPa
Moln: Några få moln
Sikt: 10 km
Molninformation: Några få moln 244 m
2023/03/23 20:50 ESGJ 232050Z 22012KT 9999 FEW008 05/04 Q0996
Några få moln
Några få moln
  Visa detaljer för Jönköpings flygplats
Avstånd från stationen: NNO 229kmESOK - Karlstad
Uppdaterad: 2023-03-23 21:50
 Vind från SSV
Vind: SSV 15 km/h
Temperatur: 4°C
Vindavkylning: 1°C
Daggpunkt: 3°C
Luftfuktighet: 93%
Barometer: 993 hPa
Moln: Delvis molnigt
Sikt: 10 km
Molninformation: Några få moln 427 m
Delvis molnigt 549 m
2023/03/23 20:50 ESOK 232050Z AUTO 21008KT 9999 FEW014/// SCT018/// 04/03 Q0993
Delvis molnigt
Delvis molnigt
  Visa detaljer för Karlstad
Avstånd från stationen: N 643kmESNZ - Östersund (Frösön)
Uppdaterad: 2023-03-23 21:50
 Vind från SO
Vind: SO 19 km/h
Temperatur: -3°C
Vindavkylning: -9°C
Daggpunkt: -3°C
Luftfuktighet: 100%
Barometer: 988 hPa
Moln: Genommulet
Sikt: 6 km
Molninformation: Övervägande molnigt 213 m
Genommulet 305 m
2023/03/23 20:50 ESNZ 232050Z 13010KT 6000 BKN007 OVC010 M03/M03 Q0988
Genommulet
Genommulet
  Visa detaljer för Östersund (Frösön)
Avstånd från stationen: SSO 216kmEKCH - Köpenhamn (Kastrup)
Uppdaterad: 2023-03-23 21:50
 Vind från S
Vind: S 19 km/h
Temperatur: 6°C
Vindavkylning: 3°C
Daggpunkt: 4°C
Luftfuktighet: 87%
Barometer: 1002 hPa
Moln: Klart
Sikt: 10 km
2023/03/23 20:50 EKCH 232050Z AUTO 19010KT 9999 NCD 06/04 Q1002 NOSIG
Klart
Klart
  Visa detaljer för Köpenhamn (Kastrup)
Avstånd från stationen: SV 263kmEKBI - Billund Airport
Uppdaterad: 2023-03-23 21:50
 Vind från SSV
Vind: SSV 17 km/h
Temperatur: 7°C
Vindavkylning: 4°C
Daggpunkt: 6°C
Luftfuktighet: 93%
Barometer: 998 hPa
Moln: Några få moln
Sikt: 9 km
Molninformation: Några få moln 244 m
2023/03/23 20:50 EKBI 232050Z AUTO 20009KT 9000 FEW008/// 07/06 Q0998
Några få moln
Några få moln
  Visa detaljer för Billund Airport
Avstånd från stationen: N 302kmENGM - Oslo (Gardermoen)
Uppdaterad: 2023-03-23 21:50
 Vind från SV
Vind: SV 19 km/h
Temperatur: 4°C
Vindavkylning: 0°C
Daggpunkt: 2°C
Luftfuktighet: 87%
Barometer: 990 hPa
Moln: Övervägande molnigt
Sikt: 10 km
Molninformation: Övervägande molnigt 244 m
2023/03/23 20:50 ENGM 232050Z 22010KT 9999 BKN008 04/02 Q0990 NOSIG
Övervägande molnigt
Övervägande molnigt
  Visa detaljer för Oslo (Gardermoen)
Avstånd från stationen: NO 540kmEFMA - Mariehamn / Åland
Uppdaterad: 2023-03-23 21:50
 Vind från S
Vind: S 9 km/h
Temperatur: 0°C
Vindavkylning: -3°C
Daggpunkt: 0°C
Luftfuktighet: 100%
Barometer: 993 hPa
Summering: Dimma
Moln: Genommulet
Sikt: 1 km
Molninformation: Genommulet 61 m
2023/03/23 20:50 EFMA 232050Z AUTO 18005KT 0900 R03/1000N FG VV002 00/00 Q0993
Dimma, Genommulet
Dimma
Genommulet
  Visa detaljer för Mariehamn / Åland
Avstånd från stationen: S 558kmEDDT - Berlin (Tegel), Germany
Uppdaterad: 2020-11-09 07:50
Ej aktuell
 Vind från O
Vind: O 11 km/h
Temperatur: 6°C
Vindavkylning: 4°C
Daggpunkt: 5°C
Luftfuktighet: 93%
Barometer: 1027 hPa
Summering: Dimmigt
Moln: Genommulet
Sikt: 3 km
Molninformation: Genommulet 91 m
2020/11/09 06:50 EDDT 090650Z 09006KT 050V120 3000 BR OVC003 06/05 Q1027
Dimmigt, Genommulet
Dimmigt
Genommulet
  Visa detaljer för Berlin (Tegel), Germany
Avstånd från stationen: SV 737kmEHAM - Amsterdam (Schiphol)
Uppdaterad: 2023-03-23 21:55
 Vind från S
Vind: S 30 km/h
Temperatur: 12°C
Daggpunkt: 11°C
Luftfuktighet: 94%
Barometer: 999 hPa
Summering: Lätt regn
Moln: Delvis molnigt
Sikt: 10 km
Molninformation: Några få moln 518 m
Delvis molnigt 671 m
2023/03/23 20:55 EHAM 232055Z 18016KT 9999 -RA FEW017 SCT022 12/11 Q0999 TEMPO 7000 RADZ
Lätt regn, Delvis molnigt
Lätt regn
Delvis molnigt
  Visa detaljer för Amsterdam (Schiphol)
Avstånd från stationen: ONO 808kmEFHK - Helsingfors (Vantaa)
Uppdaterad: 2023-03-23 21:50
 Vind från VSV
Vind: VSV 6 km/h
Temperatur: 0°C
Daggpunkt: 0°C
Luftfuktighet: 100%
Barometer: 995 hPa
Summering: Dimma
Moln: Genommulet
Sikt: 0 km
Molninformation: Genommulet 61 m
2023/03/23 20:50 EFHK 232050Z 24003KT 220V330 0300 R04L/0650D R15/0600N R22L/0600N R22R/0650N FG VV002 00/00 Q0995 TEMPO 0600
Dimma, Genommulet
Dimma
Genommulet
  Visa detaljer för Helsingfors (Vantaa)
Avstånd från stationen: SSV 537kmEDDW - Bremen
Uppdaterad: 2023-03-23 21:50
 Vind från SSO
Vind: SSO 13 km/h
Temperatur: 10°C
Vindavkylning: 8°C
Daggpunkt: 8°C
Luftfuktighet: 88%
Barometer: 1002 hPa
Moln: Övervägande molnigt
Sikt: 10 km
Molninformation: Övervägande molnigt 1280 m
2023/03/23 20:50 EDDW 232050Z AUTO 16007KT 9999 BKN042 10/08 Q1002 NOSIG
Övervägande molnigt
Övervägande molnigt
  Visa detaljer för Bremen
Avstånd från stationen: SSV 861kmEDDF - Frankfurt am Main
Uppdaterad: 2023-03-23 21:50
 Vind från SSV
Vind: SSV 15 km/h
Temperatur: 13°C
Daggpunkt: 10°C
Luftfuktighet: 82%
Barometer: 1007 hPa
Summering: Klart
Sikt: mer än 10 km
2023/03/23 20:50 EDDF 232050Z AUTO 20008KT CAVOK 13/10 Q1007 NOSIG
Klart
Klart
  Visa detaljer för Frankfurt am Main
Avstånd från stationen: SV 880kmEBBR - Bryssel international
Uppdaterad: 2023-03-23 21:50
 Vind från SSV
Vind: SSV 33 km/h
Temperatur: 12°C
Daggpunkt: 9°C
Luftfuktighet: 82%
Barometer: 1001 hPa
Summering: Lätt regn
Moln: Delvis molnigt
Sikt: 10 km
Molninformation: Delvis molnigt 914 m
2023/03/23 20:50 EBBR 232050Z 20018KT 9999 -RA SCT030 12/09 Q1001 TEMPO 19016G26KT 4500 SHRA RA BKN012
Lätt regn, Delvis molnigt
Lätt regn
Delvis molnigt
  Visa detaljer för Bryssel international
Avstånd från stationen: SV 738kmEHAM - Amsterdam (Schiphol)
Uppdaterad: 2023-03-23 21:55
 Vind från S
Vind: S 30 km/h
Temperatur: 12°C
Daggpunkt: 11°C
Luftfuktighet: 94%
Barometer: 999 hPa
Summering: Lätt regn
Moln: Delvis molnigt
Sikt: 10 km
Molninformation: Några få moln 518 m
Delvis molnigt 671 m
2023/03/23 20:55 EHAM 232055Z 18016KT 9999 -RA FEW017 SCT022 12/11 Q0999 TEMPO 7000 RADZ
Lätt regn, Delvis molnigt
Lätt regn
Delvis molnigt
  Visa detaljer för Amsterdam (Schiphol)
Avstånd från stationen: SV 1044kmEGLL - London (Heathrow)
Uppdaterad: 2023-03-23 21:50
 Vind från SV
Vind: SV 28 km/h
Temperatur: 11°C
Daggpunkt: 9°C
Luftfuktighet: 88%
Barometer: 994 hPa
Summering: Lätt regn
Moln: Åska
Sikt: 10 km
Molninformation: Övervägande molnigt 457 m
Övervägande molnigt 640 m
2023/03/23 20:50 EGLL 232050Z AUTO 23015KT 9999 -RA BKN015/// BKN021/// //////TCU 11/09 Q0994
Lätt regn, Åska
Lätt regn
Åska
  Visa detaljer för London (Heathrow)
Avstånd från stationen: SV 1132kmLFPG - Paris (Charles de Gaulle)
Uppdaterad: 2023-03-23 22:00
 Vind från S
Vind: S 24 km/h
Temperatur: 13°C
Daggpunkt: 9°C
Luftfuktighet: 77%
Barometer: 1003 hPa
Summering: Klart
Sikt: mer än 10 km
2023/03/23 21:00 LFPG 232100Z AUTO 19013KT 170V250 CAVOK 13/09 Q1003 TEMPO 22025G40KT 3000 RA BKN012 SCT015TCU
Klart
Klart
  Visa detaljer för Paris (Charles de Gaulle)
Avstånd från stationen: SSV 1142kmLSZH - Zürich Airport
Uppdaterad: 2023-03-23 21:50
 Vind från SSO
Vind: SSO 15 km/h
Temperatur: 13°C
Daggpunkt: 6°C
Luftfuktighet: 63%
Barometer: 1011 hPa
Summering: Klart
Sikt: mer än 10 km
2023/03/23 20:50 LSZH 232050Z 16008KT CAVOK 13/06 Q1011 NOSIG
Klart
Klart
  Visa detaljer för Zürich Airport
Avstånd från stationen: S 1749kmLIRF - Rome Airport (Fiumicino - Leonardo da Vinci)
Uppdaterad: 2023-03-23 21:50
 Vind från V
Vind: V 7 km/h
Temperatur: 13°C
Daggpunkt: 12°C
Luftfuktighet: 94%
Barometer: 1019 hPa
Summering: Klart
Sikt: mer än 10 km
2023/03/23 20:50 LIRF 232050Z 27004KT CAVOK 13/12 Q1019 NOSIG
Klart
Klart
  Visa detaljer för Rome Airport (Fiumicino - Leonardo da Vinci)
Avstånd från stationen: SO 2679kmLTAI - Antalya
Uppdaterad: 2023-03-23 21:50
 Vind från N
Vind: N 7 km/h
Temperatur: 13°C
Daggpunkt: 13°C
Luftfuktighet: 100%
Barometer: 1014 hPa
Moln: Delvis molnigt
Sikt: 10 km
Molninformation: Delvis molnigt 1219 m
2023/03/23 20:50 LTAI 232050Z 35004KT 9999 SCT040 13/13 Q1014 NOSIG
Delvis molnigt
Delvis molnigt
  Visa detaljer för Antalya
Avstånd från stationen: VSV 6074kmKJFK - New Your (JFK)
Uppdaterad: 2023-03-23 20:51
 Vind från SV
Vind: SV 20 km/h
Temperatur: 12°C
Daggpunkt: 11°C
Luftfuktighet: 94%
Barometer: 1009.8 hPa
Moln: Genommulet
Sikt: 13 km
Molninformation: Övervägande molnigt 457 m
Genommulet 1494 m
2023/03/23 19:51 KJFK 231951Z 23011KT 8SM BKN015 OVC049 12/11 A2982 RMK AO2 SLP097 T01170106
Genommulet
Genommulet
  Visa detaljer för New Your (JFK)
Avstånd från stationen: VSV 8848kmKLAX - Los Angeles International Airport
Uppdaterad: 2023-03-23 21:53
 Vind från V
Vind: V 31 km/h
Vindby: 43 km/h
Temperatur: 15°C
Daggpunkt: 9°C
Luftfuktighet: 68%
Barometer: 1023.4 hPa
Moln: Övervägande molnigt
Sikt: 16 km
Molninformation: Några få moln 610 m
Delvis molnigt 1372 m
Övervägande molnigt 1829 m
2023/03/23 20:53 KLAX 232053Z 26017G23KT 10SM FEW020 SCT045 BKN060 15/09 A3022 RMK AO2 SLP234 T01500094 58005
Övervägande molnigt
Övervägande molnigt
  Visa detaljer för Los Angeles International Airport
Avstånd från stationen: SO 4968kmOMDB - Dubai International Airport
Uppdaterad: 2023-03-23 22:00
 Vind från VNV
Vind: VNV 19 km/h
Temperatur: 22°C
Daggpunkt: 14°C
Luftfuktighet: 61%
Barometer: 1012 hPa
Moln: Några få moln
Sikt: 10 km
Molninformation: Några få moln 1067 m
2023/03/23 21:00 OMDB 232100Z 29010KT 9999 FEW035 22/14 Q1012 NOSIG
Några få moln
Några få moln
  Visa detaljer för Dubai International Airport
Avstånd från stationen: OSO 8570kmRJTT - Tokyo International Airport
Uppdaterad: 2023-03-23 21:49
 Vind från VNV
Vind: VNV 13 km/h
Moln: Några få moln
Sikt: 10 km
Molninformation: Några få moln 457 m
2023/03/23 20:49 RJTT 232049Z 30007KT 250V030 9999 FEW015 BKN/// 17/16 Q1001 RMK 1CU015 A2957
Några få moln
Några få moln
  Visa detaljer för Tokyo International Airport
Avstånd från stationen: OSO 7125kmZBAA - Peking (Beijing Capital)
Uppdaterad: 2023-03-23 21:30
 Vind från NNO
Vind: NNO 11 km/h
Temperatur: 4°C
Vindavkylning: 1°C
Daggpunkt: -22°C
Luftfuktighet: 13%
Barometer: 1025 hPa
Summering: Klart
Sikt: mer än 10 km
2023/03/23 20:30 ZBAA 232030Z 03003MPS CAVOK 04/M22 Q1025 NOSIG
Klart
Klart
  Visa detaljer för Peking (Beijing Capital)
VÄDER KURIOSA -  Weather TermsDew Point - A measure of atmospheric moisture. It is the temperature to which air must be cooled in order to reach saturation (assuming pressure and moisture content are constant).